Time;durP1;ratioP1;P1;durP2;ratioP2;P2;SDS_P1;SDS_P2;PMS_P1;PMS_P2;Temp;Humidity;BMP_temperature;BMP_pressure;BME280_temperature;BME280_humidity;BME280_pressure;Samples;Min_cycle;Max_cycle;Signal;HPM_P1;HPM_P2
2023/02/11 00:01:35;;;;;;;65.93;31.05;;;;;;;-2.05;71.97;102516.78;5076398;28;20055;-69
2023/02/11 00:04:01;;;;;;;67.40;30.45;;;;;;;-2.08;72.02;102507.16;5051257;28;20025;-69
2023/02/11 00:06:28;;;;;;;64.30;30.63;;;;;;;-2.09;72.29;102499.28;5038789;28;20021;-69
2023/02/11 00:08:55;;;;;;;69.70;33.90;;;;;;;-1.97;72.33;102513.25;5047244;28;20040;-69
2023/02/11 00:11:22;;;;;;;69.47;32.58;;;;;;;-1.98;72.45;102519.41;5056590;28;20099;-69
2023/02/11 00:13:48;;;;;;;74.13;33.70;;;;;;;-1.98;72.60;102506.25;5051203;28;20036;-69
2023/02/11 00:16:16;;;;;;;74.20;34.95;;;;;;;-2.00;73.14;102507.16;5052075;28;20041;-68
2023/02/11 00:18:42;;;;;;;72.20;31.92;;;;;;;-2.00;73.26;102504.53;5045983;28;20040;-69
2023/02/11 00:21:10;;;;;;;68.43;33.33;;;;;;;-1.97;72.73;102509.78;5043462;28;20103;-69
2023/02/11 00:23:36;;;;;;;67.35;31.45;;;;;;;-2.03;72.62;102488.75;5052012;28;20013;-69
2023/02/11 00:26:02;;;;;;;73.85;34.53;;;;;;;-2.03;72.74;102494.91;5052493;28;20028;-69
2023/02/11 00:28:28;;;;;;;73.88;34.53;;;;;;;-2.02;73.19;102501.91;5051698;28;20033;-69
2023/02/11 00:30:55;;;;;;;68.28;34.70;;;;;;;-2.10;73.10;102487.88;5050292;28;20045;-69
2023/02/11 00:33:20;;;;;;;68.53;34.05;;;;;;;-2.08;73.26;102499.28;5048335;28;20024;-69
2023/02/11 00:35:46;;;;;;;63.20;31.30;;;;;;;-2.14;73.45;102490.50;5051402;28;20017;-69
2023/02/11 00:38:11;;;;;;;66.65;32.80;;;;;;;-2.16;73.39;102492.28;5047091;28;20045;-68
2023/02/11 00:40:37;;;;;;;74.50;33.50;;;;;;;-2.07;73.32;102508.03;5047050;28;20108;-69
2023/02/11 00:43:02;;;;;;;71.60;33.78;;;;;;;-2.10;74.26;102498.38;5049132;28;20025;-68
2023/02/11 00:45:29;;;;;;;69.68;33.33;;;;;;;-2.10;74.53;102492.28;5046972;28;20032;-68
2023/02/11 00:47:55;;;;;;;70.47;34.00;;;;;;;-2.13;74.04;102485.25;5043266;28;20025;-68
2023/02/11 00:50:20;;;;;;;69.30;33.75;;;;;;;-2.15;73.79;102489.66;5046085;28;20525;-68
2023/02/11 00:52:46;;;;;;;65.05;33.00;;;;;;;-2.17;74.21;102487.91;5049172;28;20088;-68
2023/02/11 00:55:11;;;;;;;75.50;33.90;;;;;;;-2.24;73.96;102473.88;5047040;28;20052;-68
2023/02/11 00:57:37;;;;;;;73.18;32.60;;;;;;;-2.25;73.93;102484.41;5044895;28;20055;-68
2023/02/11 01:00:04;;;;;;;73.85;35.10;;;;;;;-2.37;73.94;102467.78;5043203;28;20028;-68
2023/02/11 01:02:29;;;;;;;66.55;32.00;;;;;;;-2.32;74.64;102473.03;5043928;28;20104;-68
2023/02/11 01:04:55;;;;;;;69.35;31.63;;;;;;;-2.42;75.15;102455.50;5050662;28;20036;-68
2023/02/11 01:07:20;;;;;;;65.10;31.80;;;;;;;-2.39;75.69;102463.38;5049118;28;20087;-68
2023/02/11 01:09:45;;;;;;;66.72;31.33;;;;;;;-2.35;75.69;102457.28;5059343;28;20024;-69
2023/02/11 01:12:11;;;;;;;71.53;33.13;;;;;;;-2.33;76.43;102455.50;5048075;28;20094;-68
2023/02/11 01:14:36;;;;;;;68.53;32.17;;;;;;;-2.37;76.91;102440.63;5047903;28;20021;-69
2023/02/11 01:17:04;;;;;;;64.53;31.00;;;;;;;-2.33;77.16;102443.25;5046412;28;20040;-69
2023/02/11 01:19:30;;;;;;;72.68;31.98;;;;;;;-2.31;77.29;102438.00;5049262;28;20381;-68
2023/02/11 01:21:55;;;;;;;71.75;32.90;;;;;;;-2.32;77.20;102433.63;5050055;28;20043;-69
2023/02/11 01:24:20;;;;;;;74.45;32.85;;;;;;;-2.30;77.80;102428.38;5049460;28;20021;-69
2023/02/11 01:26:46;;;;;;;69.55;34.03;;;;;;;-2.23;78.08;102437.97;5049979;28;20025;-69
2023/02/11 01:29:11;;;;;;;70.10;31.98;;;;;;;-2.20;78.48;102446.72;5048049;28;20021;-69
2023/02/11 01:31:37;;;;;;;68.38;32.78;;;;;;;-2.22;77.90;102443.22;5036332;28;20408;-68
2023/02/11 01:34:02;;;;;;;68.57;32.80;;;;;;;-2.23;77.88;102444.09;5048158;28;20049;-69
2023/02/11 01:36:28;;;;;;;72.00;32.30;;;;;;;-2.32;77.14;102423.13;5040231;28;20037;-69
2023/02/11 01:38:53;;;;;;;62.80;29.48;;;;;;;-2.30;77.60;102436.25;5036597;28;20037;-68
2023/02/11 01:41:19;;;;;;;67.57;31.55;;;;;;;-2.28;78.02;102437.09;5037343;28;20032;-68
2023/02/11 01:43:47;;;;;;;66.10;31.80;;;;;;;-2.30;77.95;102426.59;5048196;28;20024;-68
2023/02/11 01:46:33;;;;;;;70.97;32.45;;;;;;;-2.30;77.23;102431.00;5040132;28;20496;-69
2023/02/11 01:49:16;;;;;;;67.85;31.25;;;;;;;-2.40;77.47;102424.84;5042812;28;20090;-69
2023/02/11 01:52:00;;;;;;;47.90;22.95;;;;;;;-2.39;77.04;102430.13;5073038;28;20036;-69
2023/02/11 01:57:21;;;;;;;75.43;33.05;;;;;;;-2.49;77.40;102424.88;5041039;28;20047;-68
2023/02/11 01:59:52;;;;;;;68.57;31.15;;;;;;;-2.54;77.86;102418.75;5048925;28;20021;-69
2023/02/11 02:02:22;;;;;;;68.22;33.22;;;;;;;-2.60;77.72;102410.88;5044083;28;20514;-68
2023/02/11 02:05:33;;;;;;;59.22;29.92;;;;;;;-2.61;77.89;102410.00;5045322;28;20033;-69
2023/02/11 02:08:05;;;;;;;71.80;33.05;;;;;;;-2.68;77.78;102408.25;5022293;28;20041;-68
2023/02/11 02:10:34;;;;;;;63.17;31.50;;;;;;;-2.72;78.65;102405.63;5041256;28;20373;-69
2023/02/11 02:13:00;;;;;;;68.60;32.15;;;;;;;-2.78;78.58;102405.63;5036427;28;20017;-69
2023/02/11 02:15:37;;;;;;;68.53;32.42;;;;;;;-2.89;78.38;102396.88;5038543;28;20108;-69
2023/02/11 02:18:14;;;;;;;67.00;31.20;;;;;;;-2.86;78.14;102408.28;5044399;28;20083;-69
2023/02/11 02:20:45;;;;;;;72.55;32.22;;;;;;;-2.94;78.54;102396.88;5036404;28;20109;-68
2023/02/11 02:24:12;;;;;;;66.10;31.25;;;;;;;-2.96;78.34;102406.50;5046281;28;20116;-68
2023/02/11 02:26:56;;;;;;;66.45;31.15;;;;;;;-3.04;78.45;102397.75;4991148;28;20093;-68
2023/02/11 02:29:40;;;;;;;;;;;;;;;-3.08;79.06;102393.41;4990427;28;20057;-68
2023/02/11 02:32:31;;;;;;;63.17;30.45;;;;;;;-3.13;78.74;102389.88;5020934;28;19955;-68
2023/02/11 02:35:09;;;;;;;73.35;31.70;;;;;;;-3.17;78.34;102395.13;5043563;28;20041;-69
2023/02/11 02:37:53;;;;;;;70.70;31.55;;;;;;;-3.23;78.71;102400.34;5040719;28;20035;-68
2023/02/11 02:40:33;;;;;;;71.93;30.95;;;;;;;-3.27;78.54;102398.59;5041829;28;20048;-69
2023/02/11 02:43:01;;;;;;;65.38;30.73;;;;;;;-3.33;79.18;102396.84;5045280;28;20033;-68
2023/02/11 02:45:27;;;;;;;71.13;32.40;;;;;;;-3.35;78.74;102393.34;5043498;28;20063;-68
2023/02/11 02:47:52;;;;;;;75.45;33.47;;;;;;;-3.42;79.10;102404.69;5047206;28;20076;-68
2023/02/11 02:50:24;;;;;;;71.97;31.73;;;;;;;-3.44;79.51;102406.47;5056663;28;20040;-68
2023/02/11 02:53:13;;;;;;;71.35;31.90;;;;;;;-3.45;80.23;102409.06;5038990;28;20037;-68
2023/02/11 02:55:52;;;;;;;67.47;32.13;;;;;;;-3.52;80.10;102402.06;5045537;28;20037;-68
2023/02/11 02:58:20;;;;;;;66.55;29.30;;;;;;;-3.51;80.47;102403.81;5034907;28;20765;-68
2023/02/11 03:01:02;;;;;;;72.30;33.28;;;;;;;-3.50;80.26;102408.19;5039282;28;20079;-68
2023/02/11 03:03:33;;;;;;;65.22;30.98;;;;;;;-3.50;81.02;102397.69;5039286;28;20128;-68
2023/02/11 03:06:12;;;;;;;70.20;31.70;;;;;;;-3.51;80.95;102404.66;5039785;28;20056;-68
2023/02/11 03:08:45;;;;;;;66.68;32.33;;;;;;;-3.56;81.63;102390.69;5045357;28;20048;-68
2023/02/11 03:11:14;;;;;;;62.40;30.98;;;;;;;-3.51;81.77;102398.56;5048541;28;20032;-69
2023/02/11 03:13:41;;;;;;;63.22;31.02;;;;;;;-3.60;81.69;102385.44;5042491;28;20641;-68
2023/02/11 03:16:27;;;;;;;72.55;33.05;;;;;;;-3.58;81.73;102389.78;5046099;28;20482;-68
2023/02/11 03:19:05;;;;;;;67.88;31.52;;;;;;;-3.60;82.50;102382.81;5046184;28;20045;-68
2023/02/11 03:21:32;;;;;;;75.65;33.38;;;;;;;-3.59;82.36;102376.69;5052265;28;20056;-69
2023/02/11 03:24:06;;;;;;;67.63;29.52;;;;;;;-3.60;82.61;102381.06;5050547;28;20067;-68
2023/02/11 03:26:37;;;;;;;;;;;;;;;-3.58;83.04;102389.78;5049176;28;20075;-68
2023/02/11 03:29:14;;;;;;;66.13;29.48;;;;;;;-3.54;81.89;102395.94;5040950;28;20356;-68
2023/02/11 03:31:56;;;;;;;64.90;30.58;;;;;;;-3.56;82.52;102390.69;5035934;28;20748;-68
2023/02/11 03:34:41;;;;;;;67.80;29.67;;;;;;;-3.55;83.60;102375.84;5052814;28;20041;-68
2023/02/11 03:37:18;;;;;;;61.17;29.95;;;;;;;-3.54;83.32;102383.72;5048545;28;20029;-68
2023/02/11 03:40:01;;;;;;;73.22;30.98;;;;;;;-3.60;83.18;102375.81;5049833;28;20384;-69
2023/02/11 03:42:35;;;;;;;66.68;30.52;;;;;;;-3.68;83.32;102367.06;5045743;28;20029;-68
2023/02/11 03:45:10;;;;;;;66.82;31.90;;;;;;;-3.62;83.53;102374.94;5044232;28;20554;-68
2023/02/11 03:47:40;;;;;;;73.18;29.83;;;;;;;-3.61;83.66;102374.06;5052507;28;20055;-68
2023/02/11 03:50:07;;;;;;;65.90;32.10;;;;;;;-3.55;83.87;102379.31;5040857;28;20025;-69
2023/02/11 03:52:35;;;;;;;76.60;34.65;;;;;;;-3.52;83.80;102381.09;5050511;28;20040;-68
2023/02/11 03:55:04;;;;;;;63.60;30.80;;;;;;;-3.53;84.18;102367.09;5049426;28;20038;-69
2023/02/11 03:57:33;;;;;;;68.85;30.30;;;;;;;-3.51;83.38;102381.06;5046076;28;20037;-68
2023/02/11 03:59:58;;;;;;;62.03;29.58;;;;;;;-3.58;83.87;102352.22;5044108;28;20040;-68
2023/02/11 04:02:31;;;;;;;67.25;31.08;;;;;;;-3.55;83.68;102355.72;5040595;28;20461;-68
2023/02/11 04:04:57;;;;;;;52.08;24.33;;;;;;;-3.51;84.12;102362.72;5039937;28;20431;-68
2023/02/11 04:07:23;;;;;;;67.97;32.28;;;;;;;-3.49;84.25;102346.97;5048176;28;20033;-68
2023/02/11 04:09:48;;;;;;;66.55;31.05;;;;;;;-3.47;84.83;102332.13;5044633;28;20495;-68
2023/02/11 04:12:14;;;;;;;67.82;31.48;;;;;;;-3.39;85.40;102336.50;5047252;28;20108;-68
2023/02/11 04:14:39;;;;;;;70.82;31.63;;;;;;;-3.39;85.24;102322.53;5042233;28;20033;-69
2023/02/11 04:17:05;;;;;;;63.03;30.33;;;;;;;-3.29;85.17;102326.91;5042609;28;20048;-68
2023/02/11 04:19:31;;;;;;;69.53;31.60;;;;;;;-3.27;84.90;102326.03;5040419;28;20034;-68
2023/02/11 04:21:56;;;;;;;63.20;29.33;;;;;;;-3.31;84.68;102313.81;5044333;28;20044;-68
2023/02/11 04:24:22;;;;;;;63.38;28.80;;;;;;;-3.29;84.04;102312.03;5047785;28;20017;-68
2023/02/11 04:26:47;;;;;;;63.78;30.42;;;;;;;-3.26;84.40;102312.03;5051791;28;20511;-69
2023/02/11 04:29:13;;;;;;;68.97;31.42;;;;;;;-3.27;84.24;102298.91;5050225;28;20025;-69
2023/02/11 04:31:38;;;;;;;69.13;32.10;;;;;;;-3.24;84.85;102297.19;5047580;28;20032;-68
2023/02/11 04:34:04;;;;;;;68.25;32.10;;;;;;;-3.18;85.12;102309.41;5052304;28;20037;-67
2023/02/11 04:36:29;;;;;;;66.60;31.48;;;;;;;-3.17;85.25;102301.53;5054232;28;20037;-68
2023/02/11 04:38:55;;;;;;;63.15;29.75;;;;;;;-3.15;84.63;102294.56;5047242;28;20024;-68
2023/02/11 04:41:20;;;;;;;62.20;30.42;;;;;;;-3.13;84.27;102300.66;5037112;28;20127;-69
2023/02/11 04:43:45;;;;;;;66.57;30.67;;;;;;;-3.14;84.22;102296.31;5051042;28;20020;-68
2023/02/11 04:46:11;;;;;;;58.97;29.48;;;;;;;-3.23;83.64;102288.41;5063722;28;20025;-68
2023/02/11 04:48:36;;;;;;;61.30;30.38;;;;;;;-3.34;82.82;102256.09;5052393;28;20024;-68
2023/02/11 04:51:02;;;;;;;65.55;30.10;;;;;;;-3.24;82.88;102278.81;5044111;28;20052;-68
2023/02/11 04:53:27;;;;;;;66.70;31.27;;;;;;;-3.27;83.32;102277.94;5074152;28;20041;-68
2023/02/11 04:55:53;;;;;;;59.30;29.27;;;;;;;-3.21;83.08;102284.06;5048325;28;20100;-68
2023/02/11 04:58:19;;;;;;;67.88;33.17;;;;;;;-3.19;83.82;102279.66;5050959;28;20025;-68
2023/02/11 05:00:45;;;;;;;65.22;31.38;;;;;;;-3.26;83.63;102266.59;5042617;28;20043;-68
2023/02/11 05:03:11;;;;;;;64.47;32.17;;;;;;;-3.13;83.97;102289.31;5046121;28;20036;-68
2023/02/11 05:05:40;;;;;;;67.78;32.75;;;;;;;-3.21;83.85;102268.31;5046292;28;20033;-68
2023/02/11 05:08:07;;;;;;;65.07;30.45;;;;;;;-3.12;84.03;102289.31;5042151;28;20091;-68
2023/02/11 05:10:33;;;;;;;65.53;32.20;;;;;;;-3.15;83.84;102275.31;5045517;28;20021;-68
2023/02/11 05:12:58;;;;;;;70.40;33.33;;;;;;;-3.17;83.80;102269.16;5052250;28;20718;-68
2023/02/11 05:15:24;;;;;;;67.32;32.42;;;;;;;-3.10;83.40;102284.03;5050207;28;20041;-68
2023/02/11 05:17:49;;;;;;;68.65;32.17;;;;;;;-3.15;83.70;102270.94;5056740;28;20025;-67
2023/02/11 05:20:15;;;;;;;67.10;31.90;;;;;;;-3.22;83.62;102261.31;5040372;28;20029;-68
2023/02/11 05:22:40;;;;;;;74.18;32.88;;;;;;;-3.16;83.86;102277.03;5051322;28;20033;-68
2023/02/11 05:25:06;;;;;;;67.35;32.67;;;;;;;-3.22;83.30;102277.03;5051918;28;20130;-68
2023/02/11 05:27:31;;;;;;;74.35;33.20;;;;;;;-3.19;82.43;102282.28;5041149;28;20028;-68
2023/02/11 05:29:57;;;;;;;74.00;35.05;;;;;;;-3.23;82.83;102270.06;5041355;28;20066;-68
2023/02/11 05:32:22;;;;;;;74.85;33.78;;;;;;;-3.28;82.88;102276.19;5041889;28;20495;-68
2023/02/11 05:34:48;;;;;;;75.63;34.80;;;;;;;-3.36;82.73;102272.69;5049158;28;20380;-68
2023/02/11 05:37:13;;;;;;;75.82;34.58;;;;;;;-3.33;82.84;102284.06;5044645;28;20044;-69
2023/02/11 05:39:39;;;;;;;90.70;38.45;;;;;;;-3.36;83.13;102284.06;5036288;28;20032;-68
2023/02/11 05:42:05;;;;;;;87.65;38.55;;;;;;;-3.39;83.56;102289.28;5041782;28;20467;-68
2023/02/11 05:44:30;;;;;;;84.60;36.67;;;;;;;-3.34;83.57;102299.78;5046071;28;20334;-69
2023/02/11 05:46:55;;;;;;;80.55;37.63;;;;;;;-3.50;83.20;102272.69;5042668;28;20457;-68
2023/02/11 05:49:21;;;;;;;80.68;36.75;;;;;;;-3.47;83.38;102271.81;5044930;28;20559;-68
2023/02/11 05:51:46;;;;;;;74.40;35.13;;;;;;;-3.39;83.76;102289.28;5050557;28;20037;-68
2023/02/11 05:54:12;;;;;;;72.20;33.72;;;;;;;-3.41;83.22;102295.44;5043190;28;20065;-68
2023/02/11 05:56:37;;;;;;;73.75;34.10;;;;;;;-3.50;82.96;102277.94;5045322;28;20033;-67
2023/02/11 05:59:03;;;;;;;80.30;33.55;;;;;;;-3.48;82.72;102302.41;5043819;28;20755;-68
2023/02/11 06:01:28;;;;;;;73.15;34.17;;;;;;;-3.58;82.18;102292.78;5041706;28;20040;-68
2023/02/11 06:03:54;;;;;;;70.38;33.20;;;;;;;-3.59;82.44;102298.03;5048439;28;20099;-68
2023/02/11 06:06:19;;;;;;;67.15;31.70;;;;;;;-3.62;82.68;102305.88;5036157;28;20032;-68
2023/02/11 06:08:45;;;;;;;72.90;32.33;;;;;;;-3.63;83.13;102310.28;5049093;28;20029;-69
2023/02/11 06:11:13;;;;;;;67.65;32.13;;;;;;;-3.69;83.27;102312.00;5045360;28;20040;-68
2023/02/11 06:13:38;;;;;;;76.00;32.50;;;;;;;-3.61;84.30;102319.00;5046034;28;20028;-68
2023/02/11 06:16:04;;;;;;;74.18;33.53;;;;;;;-3.59;84.09;102322.50;5042647;28;20549;-68
2023/02/11 06:18:31;;;;;;;66.72;32.58;;;;;;;-3.67;84.70;102308.53;5036141;28;20028;-68
2023/02/11 06:20:56;;;;;;;72.65;33.53;;;;;;;-3.63;84.58;102328.63;5045615;28;20453;-68
2023/02/11 06:23:22;;;;;;;73.97;35.75;;;;;;;-3.64;85.40;102315.50;5048929;28;20068;-68
2023/02/11 06:25:47;;;;;;;78.07;37.58;;;;;;;-3.60;85.55;102317.25;5047229;28;20033;-68
2023/02/11 06:28:12;;;;;;;91.97;42.40;;;;;;;-3.61;85.58;102313.75;5036385;28;20025;-68
2023/02/11 06:30:38;;;;;;;138.60;58.13;;;;;;;-3.51;86.13;102320.75;5042155;28;20027;-68
2023/02/11 06:33:03;;;;;;;130.98;56.58;;;;;;;-3.47;86.28;102321.66;5037987;28;20079;-68
2023/02/11 06:35:29;;;;;;;119.88;53.63;;;;;;;-3.48;86.05;102306.78;5044356;28;20025;-68
2023/02/11 06:37:54;;;;;;;104.28;47.00;;;;;;;-3.37;86.42;102313.78;5051035;28;20047;-68
2023/02/11 06:40:20;;;;;;;106.78;47.30;;;;;;;-3.36;86.10;102309.41;5042247;28;20032;-68
2023/02/11 06:42:45;;;;;;;93.22;44.17;;;;;;;-3.31;85.64;102313.81;5028971;28;20029;-68
2023/02/11 06:45:12;;;;;;;98.22;44.45;;;;;;;-3.26;86.12;102298.06;5034183;28;20079;-69
2023/02/11 06:47:39;;;;;;;80.88;39.17;;;;;;;-3.20;86.20;102291.06;5044057;28;20052;-68
2023/02/11 06:50:06;;;;;;;80.13;37.28;;;;;;;-3.13;85.92;102290.16;5047735;28;20032;-68
2023/02/11 06:52:32;;;;;;;86.03;39.28;;;;;;;-3.07;85.84;102289.28;5037722;28;20044;-68
2023/02/11 06:54:58;;;;;;;76.00;37.42;;;;;;;-2.98;86.28;102291.91;5041524;28;20064;-69
2023/02/11 06:57:24;;;;;;;81.38;38.28;;;;;;;-2.96;85.63;102284.91;5042129;28;20465;-68
2023/02/11 06:59:49;;;;;;;77.45;36.20;;;;;;;-2.88;85.42;102286.63;5044914;28;20392;-68
2023/02/11 07:02:15;;;;;;;81.38;39.72;;;;;;;-2.76;85.22;102291.88;5037812;28;20025;-68
2023/02/11 07:04:40;;;;;;;75.63;36.58;;;;;;;-2.66;84.47;102295.34;5043325;28;20128;-68
2023/02/11 07:07:06;;;;;;;80.53;38.55;;;;;;;-2.65;84.53;102289.19;5041402;28;20039;-68
2023/02/11 07:09:31;;;;;;;81.15;38.88;;;;;;;-2.56;83.99;102283.94;5036765;28;20087;-68
2023/02/11 07:11:57;;;;;;;78.10;37.65;;;;;;;-2.47;83.76;102292.66;5039408;28;20052;-68
2023/02/11 07:14:22;;;;;;;81.22;39.10;;;;;;;-2.42;83.34;102282.13;5043530;28;20020;-68
2023/02/11 07:16:48;;;;;;;77.55;37.45;;;;;;;-2.33;82.96;102269.84;5034432;28;20047;-68
2023/02/11 07:19:13;;;;;;;86.90;37.85;;;;;;;-2.33;82.87;102258.44;5043373;28;20024;-68
2023/02/11 07:21:39;;;;;;;76.30;36.30;;;;;;;-2.14;82.82;102264.47;5048594;28;20037;-68
2023/02/11 07:24:08;;;;;;;72.10;35.65;;;;;;;-2.04;82.77;102267.06;5028375;28;20087;-68
2023/02/11 07:26:34;;;;;;;73.65;36.22;;;;;;;-1.89;82.04;102276.59;5043370;28;20112;-68
2023/02/11 07:29:00;;;;;;;77.43;36.97;;;;;;;-1.95;82.15;102251.22;5038839;28;20032;-68
2023/02/11 07:31:27;;;;;;;68.18;34.08;;;;;;;-1.75;82.02;102270.38;5039070;28;20031;-68
2023/02/11 07:33:55;;;;;;;71.88;34.92;;;;;;;-1.62;81.91;102255.41;5029700;28;20049;-68
2023/02/11 07:36:21;;;;;;;72.95;34.30;;;;;;;-1.64;81.06;102230.84;5030330;28;20029;-68
2023/02/11 07:38:47;;;;;;;73.40;34.55;;;;;;;-1.43;80.42;102257.88;5026117;28;20037;-68
2023/02/11 07:41:16;;;;;;;67.38;33.72;;;;;;;-1.28;80.31;102272.66;5040304;28;20053;-69
2023/02/11 07:43:42;;;;;;;63.92;33.63;;;;;;;-1.23;80.17;102245.41;5035738;28;20025;-68
2023/02/11 07:46:11;;;;;;;67.10;32.20;;;;;;;-0.93;78.39;102265.31;5043987;28;20040;-68
2023/02/11 07:48:37;;;;;;;67.75;33.90;;;;;;;-0.89;77.91;102260.00;5032825;28;20462;-68
2023/02/11 07:51:27;;;;;;;75.10;35.40;;;;;;;-0.47;75.16;102264.81;5045616;28;20041;-69
2023/02/11 07:53:54;;;;;;;63.92;31.80;;;;;;;-0.44;75.42;102254.22;5045240;28;20809;-68
2023/02/11 07:56:20;;;;;;;66.97;33.28;;;;;;;-0.22;74.08;102250.41;5042511;28;20162;-68
2023/02/11 07:58:46;;;;;;;66.28;33.90;;;;;;;-0.18;73.47;102253.88;5042891;28;20127;-68
2023/02/11 08:01:15;;;;;;;70.45;35.35;;;;;;;-0.02;73.34;102250.16;5041918;28;20594;-68
2023/02/11 08:03:42;;;;;;;65.40;33.05;;;;;;;0.08;72.86;102257.03;5039893;28;20303;-68
2023/02/11 08:06:10;;;;;;;63.88;31.80;;;;;;;0.33;71.59;102263.72;5039432;28;20021;-68
2023/02/11 08:08:35;;;;;;;72.53;34.58;;;;;;;0.58;68.99;102254.50;5064489;28;20036;-68
2023/02/11 08:11:09;;;;;;;67.70;33.03;;;;;;;0.82;67.85;102255.84;5048188;28;20032;-68
2023/02/11 08:13:35;;;;;;;86.32;41.78;;;;;;;0.84;67.60;102252.28;5055967;28;20052;-68
2023/02/11 08:16:00;;;;;;;64.97;33.80;;;;;;;0.97;66.94;102248.53;5043969;28;20063;-68
2023/02/11 08:18:26;;;;;;;68.18;34.05;;;;;;;1.14;66.75;102267.59;5047760;28;20060;-68
2023/02/11 08:20:52;;;;;;;61.05;31.17;;;;;;;1.28;66.12;102257.63;5048223;28;20045;-68
2023/02/11 08:23:17;;;;;;;60.60;30.60;;;;;;;1.37;65.03;102246.91;5041799;28;20025;-68
2023/02/11 08:25:43;;;;;;;56.92;30.08;;;;;;;1.51;64.98;102246.59;5056154;28;20051;-68
2023/02/11 08:28:08;;;;;;;61.08;31.58;;;;;;;1.84;63.31;102260.00;5039865;28;20033;-68
2023/02/11 08:30:35;;;;;;;107.00;50.50;;;;;;;1.78;63.69;102252.19;5039014;28;20048;-68
2023/02/11 08:33:00;;;;;;;55.85;30.52;;;;;;;1.91;63.49;102253.69;5033822;28;20029;-68
2023/02/11 08:35:26;;;;;;;60.75;31.98;;;;;;;1.96;63.53;102249.16;5037557;28;20094;-68
2023/02/11 08:37:52;;;;;;;73.65;42.25;;;;;;;1.98;63.70;102244.72;5047053;28;20044;-68
2023/02/11 08:40:18;;;;;;;65.38;37.03;;;;;;;2.14;62.70;102240.84;5036533;28;20048;-68
2023/02/11 08:42:43;;;;;;;60.25;30.83;;;;;;;2.53;61.48;102243.44;5043186;28;20025;-68
2023/02/11 08:45:09;;;;;;;76.20;40.05;;;;;;;2.52;61.22;102250.53;5037563;28;20017;-68
2023/02/11 08:47:35;;;;;;;64.38;32.45;;;;;;;2.63;60.67;102252.88;5048762;28;20508;-68
2023/02/11 08:50:01;;;;;;;64.20;34.05;;;;;;;2.71;60.76;102254.44;5037602;28;20020;-68
2023/02/11 08:52:26;;;;;;;58.03;31.48;;;;;;;2.67;60.42;102244.84;5037660;28;20041;-68
2023/02/11 08:54:52;;;;;;;66.88;35.97;;;;;;;2.68;60.29;102243.06;5045356;28;20043;-69
2023/02/11 08:57:18;;;;;;;64.70;34.35;;;;;;;2.83;59.97;102238.25;5033971;28;20519;-68
2023/02/11 08:59:43;;;;;;;65.68;33.63;;;;;;;2.85;59.77;102241.72;5043886;28;20094;-68
2023/02/11 09:02:13;;;;;;;57.80;33.22;;;;;;;2.83;59.20;102235.59;5052113;28;20028;-69
2023/02/11 09:04:38;;;;;;;54.60;30.27;;;;;;;2.96;59.13;102244.13;5036840;28;20201;-68
2023/02/11 09:07:04;;;;;;;59.30;31.63;;;;;;;3.07;59.11;102250.00;5034429;28;20068;-68
2023/02/11 09:09:30;;;;;;;61.83;32.63;;;;;;;3.12;58.24;102242.78;5051927;28;20028;-68
2023/02/11 09:11:56;;;;;;;64.47;33.30;;;;;;;3.11;58.51;102241.91;5039728;28;21819;-67
2023/02/11 09:14:23;;;;;;;63.95;32.83;;;;;;;3.19;58.71;102239.06;5035491;28;20032;-67
2023/02/11 09:16:50;;;;;;;90.28;46.30;;;;;;;3.39;57.87;102247.34;5034799;28;20162;-69
2023/02/11 09:19:17;;;;;;;59.45;32.75;;;;;;;3.49;57.88;102241.75;5033314;28;23348;-68
2023/02/11 09:21:42;;;;;;;60.83;31.17;;;;;;;3.65;57.08;102229.75;5043408;28;20164;-68
2023/02/11 09:24:09;;;;;;;72.05;37.15;;;;;;;3.61;56.93;102233.41;5047573;28;20120;-68
2023/02/11 09:26:35;;;;;;;60.08;33.30;;;;;;;3.48;57.54;102221.41;5037585;28;20032;-68
2023/02/11 09:29:02;;;;;;;57.78;33.10;;;;;;;3.75;57.24;102236.56;5037658;28;20045;-68
2023/02/11 09:31:29;;;;;;;67.38;34.05;;;;;;;3.71;57.42;102236.69;5041255;28;20439;-68
2023/02/11 09:33:57;;;;;;;59.28;31.73;;;;;;;3.76;57.09;102238.28;5046180;28;20045;-68
2023/02/11 09:36:36;;;;;;;57.85;31.52;;;;;;;3.90;56.43;102237.91;5043839;28;20029;-69
2023/02/11 09:39:03;;;;;;;67.07;35.03;;;;;;;3.84;57.01;102235.41;5039296;28;20071;-68
2023/02/11 09:41:49;;;;;;;58.08;30.58;;;;;;;3.99;56.41;102233.16;5041762;28;20432;-68
2023/02/11 09:44:27;;;;;;;56.15;30.20;;;;;;;4.33;55.38;102230.34;5059468;28;20041;-68
2023/02/11 09:47:00;;;;;;;53.97;30.25;;;;;;;4.41;55.51;102230.94;5046293;28;20518;-68
2023/02/11 09:49:43;;;;;;;56.53;28.92;;;;;;;4.64;53.79;102229.28;5045539;28;20036;-68
2023/02/11 09:52:23;;;;;;;50.35;28.30;;;;;;;4.78;53.40;102224.38;5034844;28;20037;-68
2023/02/11 09:55:01;;;;;;;51.03;26.25;;;;;;;4.96;53.50;102220.22;5042634;28;20049;-68
2023/02/11 09:57:32;;;;;;;53.28;29.33;;;;;;;4.91;54.24;102205.34;5036288;28;20035;-69
2023/02/11 09:59:58;;;;;;;48.30;27.83;;;;;;;4.95;54.42;102199.00;5044408;28;20259;-68
2023/02/11 10:02:53;;;;;;;53.00;30.85;;;;;;;4.98;54.03;102193.56;5045288;28;20044;-68
2023/02/11 10:05:40;;;;;;;52.30;28.92;;;;;;;4.99;53.95;102187.34;5041857;28;20129;-68
2023/02/11 10:08:31;;;;;;;49.92;28.65;;;;;;;5.12;53.86;102194.81;5049458;28;20112;-68
2023/02/11 10:11:20;;;;;;;52.20;30.40;;;;;;;5.13;53.77;102185.94;5043387;28;20054;-68
2023/02/11 10:13:59;;;;;;;54.92;30.42;;;;;;;5.01;54.10;102183.72;5043061;28;20079;-68
2023/02/11 10:16:30;;;;;;;53.63;31.30;;;;;;;5.06;54.02;102168.44;5048735;28;20098;-68
2023/02/11 10:19:20;;;;;;;52.72;29.73;;;;;;;5.11;53.99;102171.81;5048416;28;20060;-68
2023/02/11 10:21:51;;;;;;;58.00;31.38;;;;;;;5.22;53.85;102168.78;5053224;28;20028;-68
2023/02/11 10:24:17;;;;;;;58.70;32.00;;;;;;;5.17;54.29;102155.66;5047266;28;20076;-69
2023/02/11 10:26:44;;;;;;;52.50;28.48;;;;;;;5.41;53.07;102167.16;5047555;28;20071;-69
2023/02/11 10:29:20;;;;;;;53.33;29.50;;;;;;;5.44;53.12;102159.94;5040616;28;20040;-68
2023/02/11 10:31:47;;;;;;;64.32;30.98;;;;;;;5.37;52.89;102145.13;5038011;28;20032;-68
2023/02/11 10:34:14;;;;;;;55.65;30.88;;;;;;;5.33;53.70;102140.84;5043049;28;20115;-68
2023/02/11 10:36:42;;;;;;;54.00;30.70;;;;;;;5.28;53.92;102158.78;5048045;28;20028;-68
2023/02/11 10:39:15;;;;;;;53.83;28.92;;;;;;;5.35;53.36;102143.47;5049842;28;20024;-68
2023/02/11 10:41:46;;;;;;;56.97;30.50;;;;;;;5.28;53.75;102144.59;5044162;28;20036;-68
2023/02/11 10:44:29;;;;;;;52.10;29.35;;;;;;;5.39;53.38;102137.09;5051009;28;20033;-68
2023/02/11 10:46:58;;;;;;;53.20;30.33;;;;;;;5.43;53.89;102136.03;5049585;28;20029;-68
2023/02/11 10:49:33;;;;;;;51.65;28.75;;;;;;;5.49;53.44;102138.47;5047926;28;20031;-69
2023/02/11 10:52:19;;;;;;;48.67;28.10;;;;;;;5.45;53.36;102140.38;5049141;28;20045;-69
2023/02/11 10:55:13;;;;;;;56.42;29.33;;;;;;;5.47;53.65;102135.00;5047761;28;20533;-69
2023/02/11 10:57:58;;;;;;;54.45;30.65;;;;;;;5.52;53.15;102127.72;5043835;28;20133;-69
2023/02/11 11:00:39;;;;;;;54.92;29.10;;;;;;;5.53;53.72;102111.69;5042371;28;20478;-69
2023/02/11 11:03:24;;;;;;;56.78;30.45;;;;;;;5.86;52.00;102121.06;5048564;28;20491;-70
2023/02/11 11:05:53;;;;;;;52.30;29.75;;;;;;;5.75;53.03;102106.41;5046372;28;20074;-70
2023/02/11 11:08:19;;;;;;;54.50;29.33;;;;;;;5.82;52.12;102103.47;5043047;28;20506;-69
2023/02/11 11:11:04;;;;;;;54.47;29.60;;;;;;;5.99;52.07;102108.97;5046058;28;20021;-69
2023/02/11 11:13:31;;;;;;;55.75;29.27;;;;;;;5.86;52.49;102101.53;5039919;28;20057;-69
2023/02/11 11:16:12;;;;;;;53.47;29.70;;;;;;;5.92;52.51;102109.28;5038221;28;20750;-67
2023/02/11 11:18:43;;;;;;;51.92;31.30;;;;;;;5.82;52.91;102087.50;5041086;28;20033;-68
2023/02/11 11:21:16;;;;;;;57.15;31.00;;;;;;;5.88;52.09;102097.03;5041145;28;20041;-68
2023/02/11 11:23:49;;;;;;;59.50;33.35;;;;;;;5.83;53.01;102083.91;5076113;28;20098;-69
2023/02/11 11:26:16;;;;;;;53.50;31.13;;;;;;;5.96;52.59;102090.47;5044041;28;20115;-67